sensor_id;sensor_type;location;lat;lon;timestamp;P1;durP1;ratioP1;P2;durP2;ratioP2
27847;SDS011;15212;48.830;8.730;2023-01-28T00:02:06;12.55;;;5.50;;
27847;SDS011;15212;48.830;8.730;2023-01-28T00:04:35;10.18;;;4.35;;
27847;SDS011;15212;48.830;8.730;2023-01-28T00:07:05;12.80;;;5.12;;
27847;SDS011;15212;48.830;8.730;2023-01-28T00:09:33;9.78;;;4.53;;
27847;SDS011;15212;48.830;8.730;2023-01-28T00:12:01;11.30;;;4.83;;
27847;SDS011;15212;48.830;8.730;2023-01-28T00:14:30;9.68;;;4.67;;
27847;SDS011;15212;48.830;8.730;2023-01-28T00:16:58;11.93;;;4.80;;
27847;SDS011;15212;48.830;8.730;2023-01-28T00:19:27;11.10;;;4.70;;
27847;SDS011;15212;48.830;8.730;2023-01-28T00:21:55;13.35;;;6.20;;
27847;SDS011;15212;48.830;8.730;2023-01-28T00:24:23;9.85;;;5.08;;
27847;SDS011;15212;48.830;8.730;2023-01-28T00:26:52;12.18;;;6.40;;
27847;SDS011;15212;48.830;8.730;2023-01-28T00:29:20;13.58;;;5.08;;
27847;SDS011;15212;48.830;8.730;2023-01-28T00:31:49;12.37;;;5.20;;
27847;SDS011;15212;48.830;8.730;2023-01-28T00:34:17;13.55;;;5.95;;
27847;SDS011;15212;48.830;8.730;2023-01-28T00:36:46;13.53;;;5.17;;
27847;SDS011;15212;48.830;8.730;2023-01-28T00:39:16;10.63;;;4.92;;
27847;SDS011;15212;48.830;8.730;2023-01-28T00:41:44;10.78;;;4.72;;
27847;SDS011;15212;48.830;8.730;2023-01-28T00:44:12;9.78;;;4.55;;
27847;SDS011;15212;48.830;8.730;2023-01-28T00:46:41;11.28;;;5.30;;
27847;SDS011;15212;48.830;8.730;2023-01-28T00:49:09;10.30;;;4.55;;
27847;SDS011;15212;48.830;8.730;2023-01-28T00:51:38;10.32;;;4.42;;
27847;SDS011;15212;48.830;8.730;2023-01-28T00:54:06;9.40;;;4.55;;
27847;SDS011;15212;48.830;8.730;2023-01-28T00:56:36;9.10;;;4.45;;
27847;SDS011;15212;48.830;8.730;2023-01-28T00:59:05;10.68;;;4.35;;
27847;SDS011;15212;48.830;8.730;2023-01-28T01:01:33;9.75;;;4.42;;
27847;SDS011;15212;48.830;8.730;2023-01-28T01:04:02;11.55;;;4.37;;
27847;SDS011;15212;48.830;8.730;2023-01-28T01:06:34;7.70;;;4.00;;
27847;SDS011;15212;48.830;8.730;2023-01-28T01:09:06;10.53;;;5.25;;
27847;SDS011;15212;48.830;8.730;2023-01-28T01:11:36;8.98;;;3.90;;
27847;SDS011;15212;48.830;8.730;2023-01-28T01:14:05;8.73;;;4.35;;
27847;SDS011;15212;48.830;8.730;2023-01-28T01:16:35;12.85;;;4.85;;
27847;SDS011;15212;48.830;8.730;2023-01-28T01:19:03;9.68;;;4.10;;
27847;SDS011;15212;48.830;8.730;2023-01-28T01:21:33;7.80;;;3.77;;
27847;SDS011;15212;48.830;8.730;2023-01-28T01:24:02;7.53;;;3.80;;
27847;SDS011;15212;48.830;8.730;2023-01-28T01:26:30;8.10;;;3.98;;
27847;SDS011;15212;48.830;8.730;2023-01-28T01:28:59;10.28;;;4.50;;
27847;SDS011;15212;48.830;8.730;2023-01-28T01:31:27;9.00;;;3.85;;
27847;SDS011;15212;48.830;8.730;2023-01-28T01:33:55;13.20;;;4.53;;
27847;SDS011;15212;48.830;8.730;2023-01-28T01:36:24;7.78;;;4.12;;
27847;SDS011;15212;48.830;8.730;2023-01-28T01:38:53;7.58;;;3.40;;
27847;SDS011;15212;48.830;8.730;2023-01-28T01:41:23;6.10;;;3.30;;
27847;SDS011;15212;48.830;8.730;2023-01-28T01:43:57;9.25;;;4.12;;
27847;SDS011;15212;48.830;8.730;2023-01-28T01:51:57;13.72;;;4.25;;
27847;SDS011;15212;48.830;8.730;2023-01-28T01:54:38;8.20;;;3.58;;
27847;SDS011;15212;48.830;8.730;2023-01-28T01:57:11;8.28;;;3.80;;
27847;SDS011;15212;48.830;8.730;2023-01-28T01:59:44;8.98;;;3.83;;
27847;SDS011;15212;48.830;8.730;2023-01-28T02:02:12;8.30;;;3.50;;
27847;SDS011;15212;48.830;8.730;2023-01-28T02:04:42;6.87;;;3.35;;
27847;SDS011;15212;48.830;8.730;2023-01-28T02:07:12;9.95;;;4.15;;
27847;SDS011;15212;48.830;8.730;2023-01-28T02:09:42;6.87;;;3.67;;
27847;SDS011;15212;48.830;8.730;2023-01-28T02:12:17;7.67;;;3.65;;
27847;SDS011;15212;48.830;8.730;2023-01-28T02:15:01;7.40;;;3.62;;
27847;SDS011;15212;48.830;8.730;2023-01-28T02:17:39;8.68;;;3.58;;
27847;SDS011;15212;48.830;8.730;2023-01-28T02:26:00;8.43;;;3.42;;
27847;SDS011;15212;48.830;8.730;2023-01-28T02:28:49;7.62;;;3.22;;
27847;SDS011;15212;48.830;8.730;2023-01-28T02:31:41;8.35;;;3.52;;
27847;SDS011;15212;48.830;8.730;2023-01-28T02:37:14;9.43;;;4.03;;
27847;SDS011;15212;48.830;8.730;2023-01-28T02:39:49;8.48;;;3.92;;
27847;SDS011;15212;48.830;8.730;2023-01-28T02:42:31;8.90;;;3.92;;
27847;SDS011;15212;48.830;8.730;2023-01-28T02:44:58;8.28;;;4.28;;
27847;SDS011;15212;48.830;8.730;2023-01-28T02:47:27;7.83;;;3.87;;
27847;SDS011;15212;48.830;8.730;2023-01-28T02:50:14;6.60;;;3.50;;
27847;SDS011;15212;48.830;8.730;2023-01-28T02:52:55;6.47;;;3.75;;
27847;SDS011;15212;48.830;8.730;2023-01-28T02:59:01;8.90;;;3.37;;
27847;SDS011;15212;48.830;8.730;2023-01-28T03:02:00;7.72;;;4.00;;
27847;SDS011;15212;48.830;8.730;2023-01-28T03:04:52;7.45;;;3.50;;
27847;SDS011;15212;48.830;8.730;2023-01-28T03:07:28;8.93;;;3.72;;
27847;SDS011;15212;48.830;8.730;2023-01-28T03:10:00;10.10;;;4.87;;
27847;SDS011;15212;48.830;8.730;2023-01-28T03:12:32;8.23;;;4.28;;
27847;SDS011;15212;48.830;8.730;2023-01-28T03:15:27;7.42;;;3.85;;
27847;SDS011;15212;48.830;8.730;2023-01-28T03:18:37;9.68;;;4.30;;
27847;SDS011;15212;48.830;8.730;2023-01-28T03:21:33;8.60;;;3.92;;
27847;SDS011;15212;48.830;8.730;2023-01-28T03:24:29;7.65;;;4.17;;
27847;SDS011;15212;48.830;8.730;2023-01-28T03:28:19;9.18;;;4.62;;
27847;SDS011;15212;48.830;8.730;2023-01-28T03:30:32;7.58;;;3.62;;
27847;SDS011;15212;48.830;8.730;2023-01-28T03:33:22;9.10;;;4.83;;
27847;SDS011;15212;48.830;8.730;2023-01-28T03:36:10;6.62;;;3.72;;
27847;SDS011;15212;48.830;8.730;2023-01-28T03:38:56;8.98;;;4.30;;
27847;SDS011;15212;48.830;8.730;2023-01-28T03:41:25;10.85;;;5.03;;
27847;SDS011;15212;48.830;8.730;2023-01-28T03:43:53;10.20;;;4.53;;
27847;SDS011;15212;48.830;8.730;2023-01-28T03:46:22;7.78;;;3.52;;
27847;SDS011;15212;48.830;8.730;2023-01-28T03:48:50;9.03;;;3.92;;
27847;SDS011;15212;48.830;8.730;2023-01-28T03:51:19;9.68;;;4.30;;
27847;SDS011;15212;48.830;8.730;2023-01-28T03:53:48;9.53;;;4.92;;
27847;SDS011;15212;48.830;8.730;2023-01-28T03:56:16;9.70;;;4.37;;
27847;SDS011;15212;48.830;8.730;2023-01-28T03:58:46;9.60;;;4.87;;
27847;SDS011;15212;48.830;8.730;2023-01-28T04:01:22;11.70;;;4.78;;
27847;SDS011;15212;48.830;8.730;2023-01-28T04:03:50;13.13;;;5.42;;
27847;SDS011;15212;48.830;8.730;2023-01-28T04:06:18;11.25;;;4.80;;
27847;SDS011;15212;48.830;8.730;2023-01-28T04:08:47;9.13;;;5.00;;
27847;SDS011;15212;48.830;8.730;2023-01-28T04:11:17;12.75;;;5.03;;
27847;SDS011;15212;48.830;8.730;2023-01-28T04:13:46;13.83;;;4.90;;
27847;SDS011;15212;48.830;8.730;2023-01-28T04:16:16;11.48;;;5.28;;
27847;SDS011;15212;48.830;8.730;2023-01-28T04:18:45;14.83;;;5.28;;
27847;SDS011;15212;48.830;8.730;2023-01-28T04:21:13;10.50;;;5.40;;
27847;SDS011;15212;48.830;8.730;2023-01-28T04:23:42;11.03;;;4.78;;
27847;SDS011;15212;48.830;8.730;2023-01-28T04:26:10;13.08;;;5.47;;
27847;SDS011;15212;48.830;8.730;2023-01-28T04:28:39;12.93;;;5.62;;
27847;SDS011;15212;48.830;8.730;2023-01-28T04:31:07;13.05;;;5.25;;
27847;SDS011;15212;48.830;8.730;2023-01-28T04:33:35;12.93;;;5.55;;
27847;SDS011;15212;48.830;8.730;2023-01-28T04:36:04;11.53;;;5.37;;
27847;SDS011;15212;48.830;8.730;2023-01-28T04:38:32;10.78;;;4.75;;
27847;SDS011;15212;48.830;8.730;2023-01-28T04:41:00;12.82;;;5.65;;
27847;SDS011;15212;48.830;8.730;2023-01-28T04:43:29;13.20;;;5.83;;
27847;SDS011;15212;48.830;8.730;2023-01-28T04:45:57;14.10;;;5.83;;
27847;SDS011;15212;48.830;8.730;2023-01-28T04:48:26;15.00;;;5.60;;
27847;SDS011;15212;48.830;8.730;2023-01-28T04:50:56;12.60;;;5.60;;
27847;SDS011;15212;48.830;8.730;2023-01-28T04:53:24;14.98;;;5.62;;
27847;SDS011;15212;48.830;8.730;2023-01-28T04:55:53;13.15;;;5.47;;
27847;SDS011;15212;48.830;8.730;2023-01-28T04:58:22;12.35;;;5.80;;
27847;SDS011;15212;48.830;8.730;2023-01-28T05:00:52;12.20;;;6.17;;
27847;SDS011;15212;48.830;8.730;2023-01-28T05:03:22;15.98;;;5.87;;
27847;SDS011;15212;48.830;8.730;2023-01-28T05:05:51;15.45;;;6.17;;
27847;SDS011;15212;48.830;8.730;2023-01-28T05:08:21;10.28;;;5.22;;
27847;SDS011;15212;48.830;8.730;2023-01-28T05:10:49;11.75;;;5.30;;
27847;SDS011;15212;48.830;8.730;2023-01-28T05:13:17;14.10;;;5.97;;
27847;SDS011;15212;48.830;8.730;2023-01-28T05:15:49;13.08;;;5.87;;
27847;SDS011;15212;48.830;8.730;2023-01-28T05:18:19;19.62;;;7.85;;
27847;SDS011;15212;48.830;8.730;2023-01-28T05:20:48;14.95;;;6.22;;
27847;SDS011;15212;48.830;8.730;2023-01-28T05:23:16;13.80;;;6.28;;
27847;SDS011;15212;48.830;8.730;2023-01-28T05:25:44;12.50;;;5.80;;
27847;SDS011;15212;48.830;8.730;2023-01-28T05:28:13;12.30;;;5.97;;
27847;SDS011;15212;48.830;8.730;2023-01-28T05:30:42;15.98;;;5.78;;
27847;SDS011;15212;48.830;8.730;2023-01-28T05:33:10;14.28;;;6.35;;
27847;SDS011;15212;48.830;8.730;2023-01-28T05:35:38;12.78;;;5.70;;
27847;SDS011;15212;48.830;8.730;2023-01-28T05:38:08;10.48;;;5.35;;
27847;SDS011;15212;48.830;8.730;2023-01-28T05:40:37;13.50;;;5.92;;
27847;SDS011;15212;48.830;8.730;2023-01-28T05:43:05;13.50;;;6.08;;
27847;SDS011;15212;48.830;8.730;2023-01-28T05:45:33;15.85;;;6.53;;
27847;SDS011;15212;48.830;8.730;2023-01-28T05:48:02;14.50;;;5.97;;
27847;SDS011;15212;48.830;8.730;2023-01-28T05:50:30;16.02;;;6.80;;
27847;SDS011;15212;48.830;8.730;2023-01-28T05:52:59;13.98;;;6.60;;
27847;SDS011;15212;48.830;8.730;2023-01-28T05:55:29;15.30;;;6.67;;
27847;SDS011;15212;48.830;8.730;2023-01-28T05:57:57;12.30;;;6.35;;
27847;SDS011;15212;48.830;8.730;2023-01-28T06:00:26;13.40;;;6.37;;
27847;SDS011;15212;48.830;8.730;2023-01-28T06:02:54;24.23;;;9.28;;
27847;SDS011;15212;48.830;8.730;2023-01-28T06:05:23;17.73;;;8.08;;
27847;SDS011;15212;48.830;8.730;2023-01-28T06:07:51;19.27;;;7.62;;
27847;SDS011;15212;48.830;8.730;2023-01-28T06:10:19;18.70;;;7.45;;
27847;SDS011;15212;48.830;8.730;2023-01-28T06:12:48;19.02;;;8.05;;
27847;SDS011;15212;48.830;8.730;2023-01-28T06:15:16;19.15;;;7.58;;
27847;SDS011;15212;48.830;8.730;2023-01-28T06:17:45;18.52;;;7.20;;
27847;SDS011;15212;48.830;8.730;2023-01-28T06:20:13;17.15;;;7.50;;
27847;SDS011;15212;48.830;8.730;2023-01-28T06:22:42;15.32;;;7.03;;
27847;SDS011;15212;48.830;8.730;2023-01-28T06:25:10;17.57;;;8.10;;
27847;SDS011;15212;48.830;8.730;2023-01-28T06:27:39;22.10;;;7.72;;
27847;SDS011;15212;48.830;8.730;2023-01-28T06:30:07;15.90;;;7.92;;
27847;SDS011;15212;48.830;8.730;2023-01-28T06:32:37;16.50;;;7.97;;
27847;SDS011;15212;48.830;8.730;2023-01-28T06:35:05;17.20;;;8.00;;
27847;SDS011;15212;48.830;8.730;2023-01-28T06:37:34;18.23;;;8.13;;
27847;SDS011;15212;48.830;8.730;2023-01-28T06:40:04;20.30;;;8.95;;
27847;SDS011;15212;48.830;8.730;2023-01-28T06:42:34;29.18;;;10.15;;
27847;SDS011;15212;48.830;8.730;2023-01-28T06:45:02;29.72;;;11.15;;
27847;SDS011;15212;48.830;8.730;2023-01-28T06:47:31;21.23;;;8.95;;
27847;SDS011;15212;48.830;8.730;2023-01-28T06:49:59;22.98;;;9.95;;
27847;SDS011;15212;48.830;8.730;2023-01-28T06:52:27;18.65;;;8.63;;
27847;SDS011;15212;48.830;8.730;2023-01-28T06:54:56;19.90;;;8.88;;
27847;SDS011;15212;48.830;8.730;2023-01-28T06:57:24;19.10;;;8.05;;
27847;SDS011;15212;48.830;8.730;2023-01-28T06:59:53;27.00;;;12.15;;
27847;SDS011;15212;48.830;8.730;2023-01-28T07:02:21;33.48;;;12.98;;
27847;SDS011;15212;48.830;8.730;2023-01-28T07:04:49;17.67;;;9.25;;
27847;SDS011;15212;48.830;8.730;2023-01-28T07:07:18;24.05;;;10.90;;
27847;SDS011;15212;48.830;8.730;2023-01-28T07:09:46;23.30;;;9.78;;
27847;SDS011;15212;48.830;8.730;2023-01-28T07:12:15;21.77;;;8.95;;
27847;SDS011;15212;48.830;8.730;2023-01-28T07:14:43;18.42;;;8.65;;
27847;SDS011;15212;48.830;8.730;2023-01-28T07:17:11;20.97;;;9.08;;
27847;SDS011;15212;48.830;8.730;2023-01-28T07:19:40;24.05;;;9.95;;
27847;SDS011;15212;48.830;8.730;2023-01-28T07:22:08;20.02;;;10.05;;
27847;SDS011;15212;48.830;8.730;2023-01-28T07:24:36;22.02;;;9.80;;
27847;SDS011;15212;48.830;8.730;2023-01-28T07:27:05;25.72;;;11.83;;
27847;SDS011;15212;48.830;8.730;2023-01-28T07:29:33;23.02;;;9.65;;
27847;SDS011;15212;48.830;8.730;2023-01-28T07:32:02;22.22;;;10.55;;
27847;SDS011;15212;48.830;8.730;2023-01-28T07:34:32;22.07;;;10.25;;
27847;SDS011;15212;48.830;8.730;2023-01-28T07:37:02;21.77;;;9.58;;
27847;SDS011;15212;48.830;8.730;2023-01-28T07:39:31;27.98;;;11.43;;
27847;SDS011;15212;48.830;8.730;2023-01-28T07:42:00;31.77;;;13.13;;
27847;SDS011;15212;48.830;8.730;2023-01-28T07:44:29;43.87;;;16.17;;
27847;SDS011;15212;48.830;8.730;2023-01-28T07:46:57;23.62;;;9.55;;
27847;SDS011;15212;48.830;8.730;2023-01-28T07:49:25;100.87;;;42.15;;
27847;SDS011;15212;48.830;8.730;2023-01-28T07:51:54;46.33;;;20.80;;
27847;SDS011;15212;48.830;8.730;2023-01-28T07:54:22;57.48;;;28.12;;
27847;SDS011;15212;48.830;8.730;2023-01-28T07:56:51;47.93;;;20.05;;
27847;SDS011;15212;48.830;8.730;2023-01-28T07:59:19;30.92;;;12.37;;
27847;SDS011;15212;48.830;8.730;2023-01-28T08:01:48;31.45;;;15.48;;
27847;SDS011;15212;48.830;8.730;2023-01-28T08:04:18;24.32;;;10.35;;
27847;SDS011;15212;48.830;8.730;2023-01-28T08:06:47;58.90;;;22.00;;
27847;SDS011;15212;48.830;8.730;2023-01-28T08:09:17;53.58;;;28.10;;
27847;SDS011;15212;48.830;8.730;2023-01-28T08:11:45;81.92;;;48.17;;
27847;SDS011;15212;48.830;8.730;2023-01-28T08:14:13;39.38;;;15.78;;
27847;SDS011;15212;48.830;8.730;2023-01-28T08:16:42;48.75;;;19.87;;
27847;SDS011;15212;48.830;8.730;2023-01-28T08:19:10;34.03;;;14.30;;
27847;SDS011;15212;48.830;8.730;2023-01-28T08:21:38;29.25;;;12.78;;
27847;SDS011;15212;48.830;8.730;2023-01-28T08:24:07;26.20;;;11.48;;
27847;SDS011;15212;48.830;8.730;2023-01-28T08:26:35;31.68;;;12.30;;
27847;SDS011;15212;48.830;8.730;2023-01-28T08:29:04;26.30;;;11.33;;
27847;SDS011;15212;48.830;8.730;2023-01-28T08:31:32;27.87;;;12.47;;
27847;SDS011;15212;48.830;8.730;2023-01-28T08:34:00;32.10;;;13.10;;
27847;SDS011;15212;48.830;8.730;2023-01-28T08:36:29;27.55;;;12.10;;
27847;SDS011;15212;48.830;8.730;2023-01-28T08:38:57;29.70;;;11.73;;
27847;SDS011;15212;48.830;8.730;2023-01-28T08:41:25;30.43;;;12.07;;
27847;SDS011;15212;48.830;8.730;2023-01-28T08:43:54;30.70;;;12.15;;
27847;SDS011;15212;48.830;8.730;2023-01-28T08:46:23;30.52;;;12.50;;
27847;SDS011;15212;48.830;8.730;2023-01-28T08:48:51;29.50;;;12.18;;
27847;SDS011;15212;48.830;8.730;2023-01-28T08:51:19;31.55;;;11.60;;
27847;SDS011;15212;48.830;8.730;2023-01-28T08:53:48;56.18;;;21.57;;
27847;SDS011;15212;48.830;8.730;2023-01-28T08:56:16;27.55;;;11.63;;
27847;SDS011;15212;48.830;8.730;2023-01-28T08:58:44;37.73;;;13.98;;
27847;SDS011;15212;48.830;8.730;2023-01-28T09:01:13;26.10;;;10.75;;
27847;SDS011;15212;48.830;8.730;2023-01-28T09:03:41;26.30;;;12.10;;
27847;SDS011;15212;48.830;8.730;2023-01-28T09:06:10;28.67;;;11.70;;
27847;SDS011;15212;48.830;8.730;2023-01-28T09:08:38;25.27;;;11.35;;
27847;SDS011;15212;48.830;8.730;2023-01-28T09:11:06;26.52;;;11.55;;
27847;SDS011;15212;48.830;8.730;2023-01-28T09:13:35;27.35;;;11.95;;
27847;SDS011;15212;48.830;8.730;2023-01-28T09:16:04;28.40;;;10.95;;
27847;SDS011;15212;48.830;8.730;2023-01-28T09:18:32;25.55;;;10.43;;
27847;SDS011;15212;48.830;8.730;2023-01-28T09:21:03;30.10;;;11.48;;
27847;SDS011;15212;48.830;8.730;2023-01-28T09:23:34;27.62;;;10.58;;
27847;SDS011;15212;48.830;8.730;2023-01-28T09:26:03;27.50;;;11.12;;
27847;SDS011;15212;48.830;8.730;2023-01-28T09:28:34;24.67;;;10.35;;
27847;SDS011;15212;48.830;8.730;2023-01-28T09:31:06;31.17;;;14.40;;
27847;SDS011;15212;48.830;8.730;2023-01-28T09:33:38;26.23;;;10.28;;
27847;SDS011;15212;48.830;8.730;2023-01-28T09:36:07;24.05;;;9.95;;
27847;SDS011;15212;48.830;8.730;2023-01-28T09:38:38;23.62;;;10.82;;
27847;SDS011;15212;48.830;8.730;2023-01-28T09:41:17;30.92;;;11.50;;
27847;SDS011;15212;48.830;8.730;2023-01-28T09:46:36;22.80;;;10.65;;
27847;SDS011;15212;48.830;8.730;2023-01-28T09:49:19;31.70;;;11.78;;
27847;SDS011;15212;48.830;8.730;2023-01-28T09:51:40;22.05;;;10.15;;
27847;SDS011;15212;48.830;8.730;2023-01-28T09:56:57;29.23;;;11.28;;
27847;SDS011;15212;48.830;8.730;2023-01-28T09:59:34;27.87;;;11.55;;
27847;SDS011;15212;48.830;8.730;2023-01-28T10:10:55;25.30;;;10.65;;
27847;SDS011;15212;48.830;8.730;2023-01-28T10:13:27;26.62;;;10.50;;
27847;SDS011;15212;48.830;8.730;2023-01-28T10:16:08;25.95;;;10.23;;
27847;SDS011;15212;48.830;8.730;2023-01-28T10:18:51;24.77;;;9.13;;
27847;SDS011;15212;48.830;8.730;2023-01-28T10:21:30;26.85;;;11.12;;
27847;SDS011;15212;48.830;8.730;2023-01-28T10:24:13;28.98;;;11.45;;
27847;SDS011;15212;48.830;8.730;2023-01-28T10:27:02;27.17;;;10.18;;
27847;SDS011;15212;48.830;8.730;2023-01-28T10:29:36;29.25;;;11.15;;
27847;SDS011;15212;48.830;8.730;2023-01-28T10:32:27;27.10;;;10.70;;
27847;SDS011;15212;48.830;8.730;2023-01-28T10:35:01;25.97;;;11.08;;
27847;SDS011;15212;48.830;8.730;2023-01-28T10:37:30;26.65;;;11.85;;
27847;SDS011;15212;48.830;8.730;2023-01-28T10:40:03;30.50;;;13.65;;
27847;SDS011;15212;48.830;8.730;2023-01-28T10:42:35;28.87;;;11.78;;
27847;SDS011;15212;48.830;8.730;2023-01-28T10:45:19;28.73;;;13.38;;
27847;SDS011;15212;48.830;8.730;2023-01-28T10:51:04;26.33;;;12.15;;
27847;SDS011;15212;48.830;8.730;2023-01-28T10:53:34;29.07;;;11.95;;
27847;SDS011;15212;48.830;8.730;2023-01-28T10:56:13;24.12;;;10.75;;
27847;SDS011;15212;48.830;8.730;2023-01-28T10:58:49;27.73;;;10.72;;
27847;SDS011;15212;48.830;8.730;2023-01-28T11:01:48;24.80;;;10.10;;
27847;SDS011;15212;48.830;8.730;2023-01-28T11:04:26;24.67;;;9.95;;
27847;SDS011;15212;48.830;8.730;2023-01-28T11:06:59;28.77;;;10.55;;
27847;SDS011;15212;48.830;8.730;2023-01-28T11:09:50;23.60;;;10.35;;
27847;SDS011;15212;48.830;8.730;2023-01-28T11:14:53;24.70;;;9.83;;
27847;SDS011;15212;48.830;8.730;2023-01-28T11:17:30;25.77;;;10.55;;
27847;SDS011;15212;48.830;8.730;2023-01-28T11:20:08;32.10;;;11.43;;
27847;SDS011;15212;48.830;8.730;2023-01-28T11:22:42;26.60;;;11.12;;
27847;SDS011;15212;48.830;8.730;2023-01-28T11:25:18;27.22;;;10.98;;
27847;SDS011;15212;48.830;8.730;2023-01-28T11:27:56;22.27;;;10.18;;
27847;SDS011;15212;48.830;8.730;2023-01-28T11:30:41;24.40;;;10.58;;
27847;SDS011;15212;48.830;8.730;2023-01-28T11:33:16;29.20;;;14.35;;
27847;SDS011;15212;48.830;8.730;2023-01-28T11:35:52;28.25;;;13.10;;
27847;SDS011;15212;48.830;8.730;2023-01-28T11:38:24;23.32;;;9.98;;
27847;SDS011;15212;48.830;8.730;2023-01-28T11:40:56;25.43;;;10.30;;
27847;SDS011;15212;48.830;8.730;2023-01-28T11:43:28;28.02;;;11.90;;
27847;SDS011;15212;48.830;8.730;2023-01-28T11:46:09;27.13;;;12.50;;
27847;SDS011;15212;48.830;8.730;2023-01-28T11:54:45;22.80;;;9.13;;
27847;SDS011;15212;48.830;8.730;2023-01-28T12:12:27;22.37;;;9.78;;
27847;SDS011;15212;48.830;8.730;2023-01-28T12:18:29;27.93;;;11.80;;
27847;SDS011;15212;48.830;8.730;2023-01-28T12:21:19;25.27;;;9.68;;
27847;SDS011;15212;48.830;8.730;2023-01-28T12:24:13;22.10;;;9.33;;
27847;SDS011;15212;48.830;8.730;2023-01-28T12:27:00;18.77;;;7.65;;
27847;SDS011;15212;48.830;8.730;2023-01-28T12:29:33;21.90;;;8.18;;
27847;SDS011;15212;48.830;8.730;2023-01-28T12:35:46;18.30;;;8.30;;
27847;SDS011;15212;48.830;8.730;2023-01-28T12:37:58;16.85;;;7.80;;
27847;SDS011;15212;48.830;8.730;2023-01-28T12:40:42;27.35;;;9.53;;
27847;SDS011;15212;48.830;8.730;2023-01-28T12:43:38;31.90;;;11.40;;
27847;SDS011;15212;48.830;8.730;2023-01-28T12:46:36;24.25;;;9.70;;
27847;SDS011;15212;48.830;8.730;2023-01-28T12:49:24;50.45;;;14.58;;
27847;SDS011;15212;48.830;8.730;2023-01-28T12:52:16;22.07;;;9.13;;
27847;SDS011;15212;48.830;8.730;2023-01-28T12:56:12;20.35;;;8.78;;
27847;SDS011;15212;48.830;8.730;2023-01-28T12:57:51;15.70;;;7.45;;
27847;SDS011;15212;48.830;8.730;2023-01-28T13:00:24;37.40;;;10.88;;
27847;SDS011;15212;48.830;8.730;2023-01-28T13:04:09;26.15;;;9.80;;
27847;SDS011;15212;48.830;8.730;2023-01-28T13:06:10;24.32;;;9.80;;
27847;SDS011;15212;48.830;8.730;2023-01-28T13:08:50;19.90;;;8.03;;
27847;SDS011;15212;48.830;8.730;2023-01-28T13:11:23;19.82;;;8.18;;
27847;SDS011;15212;48.830;8.730;2023-01-28T13:13:59;23.25;;;9.10;;
27847;SDS011;15212;48.830;8.730;2023-01-28T13:16:29;30.82;;;14.87;;
27847;SDS011;15212;48.830;8.730;2023-01-28T13:21:49;14.58;;;7.15;;
27847;SDS011;15212;48.830;8.730;2023-01-28T13:24:19;13.62;;;7.00;;
27847;SDS011;15212;48.830;8.730;2023-01-28T13:26:56;15.78;;;7.60;;
27847;SDS011;15212;48.830;8.730;2023-01-28T13:32:01;15.70;;;6.97;;
27847;SDS011;15212;48.830;8.730;2023-01-28T13:34:34;17.25;;;7.75;;
27847;SDS011;15212;48.830;8.730;2023-01-28T13:37:16;14.47;;;6.35;;
27847;SDS011;15212;48.830;8.730;2023-01-28T13:43:02;13.88;;;7.37;;
27847;SDS011;15212;48.830;8.730;2023-01-28T13:45:32;13.30;;;7.12;;
27847;SDS011;15212;48.830;8.730;2023-01-28T13:48:04;15.45;;;7.37;;
27847;SDS011;15212;48.830;8.730;2023-01-28T13:50:48;16.23;;;7.40;;
27847;SDS011;15212;48.830;8.730;2023-01-28T13:53:33;21.70;;;8.43;;
27847;SDS011;15212;48.830;8.730;2023-01-28T13:56:20;21.42;;;10.15;;
27847;SDS011;15212;48.830;8.730;2023-01-28T13:59:22;19.45;;;7.75;;
27847;SDS011;15212;48.830;8.730;2023-01-28T14:02:13;19.60;;;8.55;;
27847;SDS011;15212;48.830;8.730;2023-01-28T14:05:20;23.32;;;10.23;;
27847;SDS011;15212;48.830;8.730;2023-01-28T14:08:21;28.92;;;11.43;;
27847;SDS011;15212;48.830;8.730;2023-01-28T14:17:46;26.25;;;9.93;;
27847;SDS011;15212;48.830;8.730;2023-01-28T14:22:49;25.05;;;9.78;;
27847;SDS011;15212;48.830;8.730;2023-01-28T14:25:21;23.80;;;9.85;;
27847;SDS011;15212;48.830;8.730;2023-01-28T14:27:55;24.47;;;9.05;;
27847;SDS011;15212;48.830;8.730;2023-01-28T14:30:35;23.40;;;8.53;;
27847;SDS011;15212;48.830;8.730;2023-01-28T14:33:09;21.73;;;9.05;;
27847;SDS011;15212;48.830;8.730;2023-01-28T14:35:42;30.68;;;12.25;;
27847;SDS011;15212;48.830;8.730;2023-01-28T14:38:14;20.85;;;10.00;;
27847;SDS011;15212;48.830;8.730;2023-01-28T14:40:49;22.85;;;9.88;;
27847;SDS011;15212;48.830;8.730;2023-01-28T14:43:20;28.05;;;9.73;;
27847;SDS011;15212;48.830;8.730;2023-01-28T14:46:09;23.98;;;9.83;;
27847;SDS011;15212;48.830;8.730;2023-01-28T14:49:02;17.48;;;7.92;;
27847;SDS011;15212;48.830;8.730;2023-01-28T14:51:53;36.03;;;13.08;;
27847;SDS011;15212;48.830;8.730;2023-01-28T14:54:53;31.80;;;11.85;;
27847;SDS011;15212;48.830;8.730;2023-01-28T14:57:46;31.68;;;12.15;;
27847;SDS011;15212;48.830;8.730;2023-01-28T15:00:24;34.50;;;13.98;;
27847;SDS011;15212;48.830;8.730;2023-01-28T15:02:55;44.77;;;15.95;;
27847;SDS011;15212;48.830;8.730;2023-01-28T15:05:28;21.70;;;10.05;;
27847;SDS011;15212;48.830;8.730;2023-01-28T15:07:56;29.00;;;12.60;;
27847;SDS011;15212;48.830;8.730;2023-01-28T15:10:26;26.40;;;10.45;;
27847;SDS011;15212;48.830;8.730;2023-01-28T15:13:04;25.72;;;10.43;;
27847;SDS011;15212;48.830;8.730;2023-01-28T15:15:39;24.60;;;9.58;;
27847;SDS011;15212;48.830;8.730;2023-01-28T15:20:49;19.37;;;9.38;;
27847;SDS011;15212;48.830;8.730;2023-01-28T15:23:23;25.08;;;9.70;;
27847;SDS011;15212;48.830;8.730;2023-01-28T15:25:53;17.10;;;8.73;;
27847;SDS011;15212;48.830;8.730;2023-01-28T15:28:26;18.25;;;7.90;;
27847;SDS011;15212;48.830;8.730;2023-01-28T15:30:57;14.28;;;5.97;;
27847;SDS011;15212;48.830;8.730;2023-01-28T15:33:25;15.85;;;7.28;;
27847;SDS011;15212;48.830;8.730;2023-01-28T15:35:55;16.42;;;7.45;;
27847;SDS011;15212;48.830;8.730;2023-01-28T15:38:25;20.23;;;7.95;;
27847;SDS011;15212;48.830;8.730;2023-01-28T15:40:59;19.45;;;7.20;;
27847;SDS011;15212;48.830;8.730;2023-01-28T15:43:30;20.23;;;8.15;;
27847;SDS011;15212;48.830;8.730;2023-01-28T15:46:03;18.12;;;7.75;;
27847;SDS011;15212;48.830;8.730;2023-01-28T15:51:15;28.10;;;12.58;;
27847;SDS011;15212;48.830;8.730;2023-01-28T15:53:55;19.48;;;8.25;;
27847;SDS011;15212;48.830;8.730;2023-01-28T15:56:29;39.03;;;13.53;;
27847;SDS011;15212;48.830;8.730;2023-01-28T15:59:17;27.58;;;11.22;;
27847;SDS011;15212;48.830;8.730;2023-01-28T16:04:56;16.97;;;7.62;;
27847;SDS011;15212;48.830;8.730;2023-01-28T16:07:30;15.98;;;7.55;;
27847;SDS011;15212;48.830;8.730;2023-01-28T16:10:01;19.65;;;8.23;;
27847;SDS011;15212;48.830;8.730;2023-01-28T16:12:30;15.15;;;7.33;;
27847;SDS011;15212;48.830;8.730;2023-01-28T16:15:02;15.60;;;7.08;;
27847;SDS011;15212;48.830;8.730;2023-01-28T16:17:37;21.95;;;9.60;;
27847;SDS011;15212;48.830;8.730;2023-01-28T16:20:08;24.82;;;9.65;;
27847;SDS011;15212;48.830;8.730;2023-01-28T16:22:49;26.87;;;11.05;;
27847;SDS011;15212;48.830;8.730;2023-01-28T16:27:56;21.60;;;8.75;;
27847;SDS011;15212;48.830;8.730;2023-01-28T16:30:26;18.07;;;7.42;;
27847;SDS011;15212;48.830;8.730;2023-01-28T16:32:55;23.92;;;10.40;;
27847;SDS011;15212;48.830;8.730;2023-01-28T16:35:28;23.20;;;9.93;;
27847;SDS011;15212;48.830;8.730;2023-01-28T16:37:56;24.80;;;10.75;;
27847;SDS011;15212;48.830;8.730;2023-01-28T16:40:25;28.02;;;12.40;;
27847;SDS011;15212;48.830;8.730;2023-01-28T16:42:54;34.58;;;12.88;;
27847;SDS011;15212;48.830;8.730;2023-01-28T16:45:23;31.55;;;12.40;;